sensor_id;sensor_type;location;lat;lon;timestamp;P1;durP1;ratioP1;P2;durP2;ratioP2
38318;SDS011;24121;53.536;10.224;2022-07-29T07:50:58;3.60;;;1.90;;
38318;SDS011;24121;53.536;10.224;2022-07-29T07:53:23;5.82;;;2.30;;
38318;SDS011;24121;53.536;10.224;2022-07-29T07:55:49;7.95;;;2.33;;
38318;SDS011;24121;53.536;10.224;2022-07-29T07:58:14;6.63;;;2.50;;
38318;SDS011;24121;53.536;10.224;2022-07-29T08:00:48;7.65;;;2.00;;
38318;SDS011;24121;53.536;10.224;2022-07-29T08:03:14;6.80;;;2.05;;
38318;SDS011;24121;53.536;10.224;2022-07-29T08:05:40;5.68;;;2.10;;
38318;SDS011;24121;53.536;10.224;2022-07-29T08:08:05;5.60;;;2.47;;
38318;SDS011;24121;53.536;10.224;2022-07-29T08:10:31;6.10;;;2.25;;
38318;SDS011;24121;53.536;10.224;2022-07-29T08:13:15;5.82;;;2.20;;
38318;SDS011;24121;53.536;10.224;2022-07-29T08:15:40;4.15;;;2.20;;
38318;SDS011;24121;53.536;10.224;2022-07-29T08:18:07;4.28;;;2.03;;
38318;SDS011;24121;53.536;10.224;2022-07-29T08:20:32;4.38;;;2.20;;
38318;SDS011;24121;53.536;10.224;2022-07-29T08:23:00;4.95;;;2.03;;
38318;SDS011;24121;53.536;10.224;2022-07-29T08:25:26;4.90;;;2.00;;
38318;SDS011;24121;53.536;10.224;2022-07-29T08:27:51;5.65;;;2.30;;
38318;SDS011;24121;53.536;10.224;2022-07-29T08:30:16;5.70;;;1.98;;
38318;SDS011;24121;53.536;10.224;2022-07-29T08:32:41;3.92;;;2.17;;
38318;SDS011;24121;53.536;10.224;2022-07-29T08:35:07;4.72;;;1.95;;
38318;SDS011;24121;53.536;10.224;2022-07-29T08:37:32;4.93;;;2.20;;
38318;SDS011;24121;53.536;10.224;2022-07-29T08:39:58;7.10;;;2.25;;
38318;SDS011;24121;53.536;10.224;2022-07-29T08:42:23;4.20;;;2.17;;
38318;SDS011;24121;53.536;10.224;2022-07-29T08:44:48;7.53;;;1.90;;
38318;SDS011;24121;53.536;10.224;2022-07-29T08:47:15;4.55;;;2.25;;
38318;SDS011;24121;53.536;10.224;2022-07-29T08:49:41;4.70;;;1.95;;
38318;SDS011;24121;53.536;10.224;2022-07-29T08:52:06;4.72;;;2.10;;
38318;SDS011;24121;53.536;10.224;2022-07-29T08:54:35;6.15;;;2.05;;
38318;SDS011;24121;53.536;10.224;2022-07-29T08:57:01;5.07;;;1.80;;
38318;SDS011;24121;53.536;10.224;2022-07-29T08:59:27;4.90;;;2.10;;
38318;SDS011;24121;53.536;10.224;2022-07-29T09:01:53;9.25;;;2.47;;
38318;SDS011;24121;53.536;10.224;2022-07-29T09:04:19;3.85;;;1.80;;
38318;SDS011;24121;53.536;10.224;2022-07-29T09:06:46;5.07;;;2.08;;
38318;SDS011;24121;53.536;10.224;2022-07-29T09:09:13;4.47;;;1.90;;
38318;SDS011;24121;53.536;10.224;2022-07-29T09:11:39;5.50;;;2.30;;
38318;SDS011;24121;53.536;10.224;2022-07-29T09:14:05;4.65;;;1.83;;
38318;SDS011;24121;53.536;10.224;2022-07-29T09:19:19;6.32;;;2.17;;
38318;SDS011;24121;53.536;10.224;2022-07-29T09:24:23;3.38;;;1.88;;
38318;SDS011;24121;53.536;10.224;2022-07-29T09:27:27;4.85;;;2.00;;
38318;SDS011;24121;53.536;10.224;2022-07-29T09:29:56;5.72;;;1.98;;
38318;SDS011;24121;53.536;10.224;2022-07-29T09:32:23;4.40;;;2.05;;
38318;SDS011;24121;53.536;10.224;2022-07-29T09:34:48;8.75;;;2.15;;
38318;SDS011;24121;53.536;10.224;2022-07-29T09:37:25;5.28;;;1.98;;
38318;SDS011;24121;53.536;10.224;2022-07-29T09:39:51;6.00;;;1.85;;
38318;SDS011;24121;53.536;10.224;2022-07-29T09:42:17;5.22;;;2.22;;
38318;SDS011;24121;53.536;10.224;2022-07-29T09:44:53;3.85;;;2.00;;
38318;SDS011;24121;53.536;10.224;2022-07-29T09:47:18;3.40;;;2.10;;
38318;SDS011;24121;53.536;10.224;2022-07-29T09:49:51;4.38;;;1.80;;
38318;SDS011;24121;53.536;10.224;2022-07-29T09:52:18;3.92;;;2.00;;
38318;SDS011;24121;53.536;10.224;2022-07-29T09:54:43;3.33;;;1.80;;
38318;SDS011;24121;53.536;10.224;2022-07-29T09:57:21;4.88;;;1.73;;
38318;SDS011;24121;53.536;10.224;2022-07-29T10:02:34;3.63;;;1.63;;
38318;SDS011;24121;53.536;10.224;2022-07-29T10:05:00;6.18;;;1.65;;
38318;SDS011;24121;53.536;10.224;2022-07-29T10:10:22;5.53;;;1.88;;
38318;SDS011;24121;53.536;10.224;2022-07-29T10:12:54;3.63;;;1.48;;
38318;SDS011;24121;53.536;10.224;2022-07-29T10:15:24;3.65;;;1.70;;
38318;SDS011;24121;53.536;10.224;2022-07-29T10:17:51;5.50;;;1.70;;
38318;SDS011;24121;53.536;10.224;2022-07-29T10:20:17;4.45;;;1.33;;
38318;SDS011;24121;53.536;10.224;2022-07-29T10:22:43;4.63;;;1.90;;
38318;SDS011;24121;53.536;10.224;2022-07-29T10:25:09;4.50;;;1.55;;
38318;SDS011;24121;53.536;10.224;2022-07-29T10:27:35;5.82;;;2.22;;
38318;SDS011;24121;53.536;10.224;2022-07-29T10:30:01;12.50;;;2.10;;
38318;SDS011;24121;53.536;10.224;2022-07-29T10:43:51;4.50;;;1.80;;
38318;SDS011;24121;53.536;10.224;2022-07-29T10:46:18;3.95;;;1.60;;
38318;SDS011;24121;53.536;10.224;2022-07-29T10:54:15;3.55;;;1.80;;
38318;SDS011;24121;53.536;10.224;2022-07-29T10:56:41;5.00;;;1.92;;
38318;SDS011;24121;53.536;10.224;2022-07-29T11:01:51;2.90;;;1.35;;
38318;SDS011;24121;53.536;10.224;2022-07-29T11:07:08;5.75;;;1.60;;
38318;SDS011;24121;53.536;10.224;2022-07-29T11:09:34;5.00;;;1.60;;
38318;SDS011;24121;53.536;10.224;2022-07-29T11:11:59;4.20;;;1.52;;
38318;SDS011;24121;53.536;10.224;2022-07-29T11:17:26;5.22;;;1.60;;
38318;SDS011;24121;53.536;10.224;2022-07-29T11:19:51;4.38;;;1.77;;
38318;SDS011;24121;53.536;10.224;2022-07-29T11:22:31;4.55;;;1.52;;
38318;SDS011;24121;53.536;10.224;2022-07-29T11:25:17;4.13;;;1.42;;
38318;SDS011;24121;53.536;10.224;2022-07-29T11:27:43;4.15;;;1.40;;
38318;SDS011;24121;53.536;10.224;2022-07-29T11:30:09;3.85;;;1.48;;
38318;SDS011;24121;53.536;10.224;2022-07-29T11:32:37;4.13;;;1.40;;
38318;SDS011;24121;53.536;10.224;2022-07-29T11:35:14;3.45;;;1.50;;
38318;SDS011;24121;53.536;10.224;2022-07-29T11:43:49;4.90;;;1.50;;
38318;SDS011;24121;53.536;10.224;2022-07-29T11:47:03;3.42;;;1.45;;
38318;SDS011;24121;53.536;10.224;2022-07-29T11:49:20;5.50;;;1.42;;
38318;SDS011;24121;53.536;10.224;2022-07-29T11:51:50;2.97;;;1.42;;
38318;SDS011;24121;53.536;10.224;2022-07-29T11:54:25;3.55;;;1.40;;
38318;SDS011;24121;53.536;10.224;2022-07-29T11:56:58;5.55;;;1.95;;
38318;SDS011;24121;53.536;10.224;2022-07-29T11:59:23;3.50;;;1.75;;
38318;SDS011;24121;53.536;10.224;2022-07-29T12:01:56;3.30;;;1.60;;
38318;SDS011;24121;53.536;10.224;2022-07-29T12:04:22;4.32;;;1.90;;
38318;SDS011;24121;53.536;10.224;2022-07-29T12:06:51;3.13;;;1.52;;
38318;SDS011;24121;53.536;10.224;2022-07-29T12:09:18;6.30;;;1.60;;
38318;SDS011;24121;53.536;10.224;2022-07-29T12:11:44;4.90;;;1.65;;
38318;SDS011;24121;53.536;10.224;2022-07-29T12:14:26;2.50;;;1.30;;
38318;SDS011;24121;53.536;10.224;2022-07-29T12:16:56;5.25;;;1.65;;
38318;SDS011;24121;53.536;10.224;2022-07-29T12:19:22;3.80;;;1.77;;
38318;SDS011;24121;53.536;10.224;2022-07-29T12:21:47;2.55;;;1.73;;
38318;SDS011;24121;53.536;10.224;2022-07-29T12:24:14;4.78;;;1.60;;
38318;SDS011;24121;53.536;10.224;2022-07-29T12:26:58;4.65;;;1.55;;
38318;SDS011;24121;53.536;10.224;2022-07-29T12:29:24;7.68;;;1.80;;
38318;SDS011;24121;53.536;10.224;2022-07-29T12:31:54;5.05;;;1.67;;
38318;SDS011;24121;53.536;10.224;2022-07-29T12:34:22;7.93;;;1.45;;
38318;SDS011;24121;53.536;10.224;2022-07-29T12:36:48;4.72;;;1.50;;
38318;SDS011;24121;53.536;10.224;2022-07-29T12:39:17;4.13;;;1.63;;
38318;SDS011;24121;53.536;10.224;2022-07-29T12:41:43;6.03;;;1.90;;
38318;SDS011;24121;53.536;10.224;2022-07-29T12:44:09;4.00;;;1.80;;
38318;SDS011;24121;53.536;10.224;2022-07-29T12:46:35;4.22;;;1.92;;
38318;SDS011;24121;53.536;10.224;2022-07-29T12:49:00;4.10;;;1.73;;
38318;SDS011;24121;53.536;10.224;2022-07-29T12:51:29;3.08;;;1.45;;
38318;SDS011;24121;53.536;10.224;2022-07-29T12:54:02;6.70;;;1.73;;
38318;SDS011;24121;53.536;10.224;2022-07-29T12:56:32;5.30;;;1.40;;
38318;SDS011;24121;53.536;10.224;2022-07-29T12:58:58;3.90;;;1.40;;
38318;SDS011;24121;53.536;10.224;2022-07-29T13:01:23;4.30;;;1.77;;
38318;SDS011;24121;53.536;10.224;2022-07-29T13:03:50;6.65;;;1.58;;
38318;SDS011;24121;53.536;10.224;2022-07-29T13:09:13;4.45;;;1.40;;
38318;SDS011;24121;53.536;10.224;2022-07-29T13:11:46;4.32;;;1.73;;
38318;SDS011;24121;53.536;10.224;2022-07-29T13:14:29;5.18;;;1.83;;
38318;SDS011;24121;53.536;10.224;2022-07-29T13:21:58;3.10;;;1.15;;
38318;SDS011;24121;53.536;10.224;2022-07-29T13:24:23;4.40;;;1.50;;
38318;SDS011;24121;53.536;10.224;2022-07-29T13:26:48;5.05;;;1.50;;
38318;SDS011;24121;53.536;10.224;2022-07-29T13:29:14;5.50;;;2.05;;
38318;SDS011;24121;53.536;10.224;2022-07-29T13:31:39;5.22;;;2.10;;
38318;SDS011;24121;53.536;10.224;2022-07-29T13:34:04;6.13;;;2.20;;
38318;SDS011;24121;53.536;10.224;2022-07-29T13:36:30;4.55;;;1.73;;
38318;SDS011;24121;53.536;10.224;2022-07-29T13:38:55;4.68;;;2.00;;
38318;SDS011;24121;53.536;10.224;2022-07-29T13:41:20;7.38;;;1.92;;
38318;SDS011;24121;53.536;10.224;2022-07-29T13:43:46;6.60;;;2.15;;
38318;SDS011;24121;53.536;10.224;2022-07-29T13:46:11;3.92;;;2.13;;
38318;SDS011;24121;53.536;10.224;2022-07-29T13:48:36;9.50;;;2.40;;
38318;SDS011;24121;53.536;10.224;2022-07-29T13:51:02;2.53;;;1.77;;
38318;SDS011;24121;53.536;10.224;2022-07-29T13:53:27;4.20;;;1.90;;
38318;SDS011;24121;53.536;10.224;2022-07-29T13:55:53;3.22;;;1.80;;
38318;SDS011;24121;53.536;10.224;2022-07-29T13:58:19;4.82;;;2.20;;
38318;SDS011;24121;53.536;10.224;2022-07-29T14:00:45;7.82;;;2.40;;
38318;SDS011;24121;53.536;10.224;2022-07-29T14:03:11;8.10;;;1.67;;
38318;SDS011;24121;53.536;10.224;2022-07-29T14:05:36;9.77;;;2.20;;
38318;SDS011;24121;53.536;10.224;2022-07-29T14:08:02;4.97;;;1.90;;
38318;SDS011;24121;53.536;10.224;2022-07-29T14:10:27;3.60;;;1.80;;
38318;SDS011;24121;53.536;10.224;2022-07-29T14:12:52;3.13;;;1.85;;
38318;SDS011;24121;53.536;10.224;2022-07-29T14:15:18;5.38;;;2.20;;
38318;SDS011;24121;53.536;10.224;2022-07-29T14:17:43;4.13;;;2.03;;
38318;SDS011;24121;53.536;10.224;2022-07-29T14:20:09;3.92;;;1.83;;
38318;SDS011;24121;53.536;10.224;2022-07-29T14:22:34;6.72;;;1.92;;
38318;SDS011;24121;53.536;10.224;2022-07-29T14:24:59;3.03;;;1.77;;
38318;SDS011;24121;53.536;10.224;2022-07-29T14:27:25;5.47;;;1.85;;
38318;SDS011;24121;53.536;10.224;2022-07-29T14:29:50;6.72;;;2.00;;
38318;SDS011;24121;53.536;10.224;2022-07-29T14:32:15;7.35;;;2.13;;
38318;SDS011;24121;53.536;10.224;2022-07-29T14:34:41;10.10;;;2.17;;
38318;SDS011;24121;53.536;10.224;2022-07-29T14:37:06;4.47;;;1.80;;
38318;SDS011;24121;53.536;10.224;2022-07-29T14:39:32;6.05;;;2.03;;
38318;SDS011;24121;53.536;10.224;2022-07-29T14:41:57;5.07;;;1.90;;
38318;SDS011;24121;53.536;10.224;2022-07-29T14:44:23;5.60;;;1.98;;
38318;SDS011;24121;53.536;10.224;2022-07-29T14:46:51;5.28;;;2.10;;
38318;SDS011;24121;53.536;10.224;2022-07-29T14:49:16;4.57;;;1.65;;
38318;SDS011;24121;53.536;10.224;2022-07-29T14:51:42;9.20;;;2.35;;
38318;SDS011;24121;53.536;10.224;2022-07-29T14:54:07;3.55;;;1.50;;
38318;SDS011;24121;53.536;10.224;2022-07-29T14:56:33;7.82;;;1.90;;
38318;SDS011;24121;53.536;10.224;2022-07-29T14:58:58;6.68;;;2.10;;
38318;SDS011;24121;53.536;10.224;2022-07-29T15:01:24;6.40;;;1.95;;
38318;SDS011;24121;53.536;10.224;2022-07-29T15:03:50;6.22;;;1.63;;
38318;SDS011;24121;53.536;10.224;2022-07-29T15:06:15;6.93;;;2.00;;
38318;SDS011;24121;53.536;10.224;2022-07-29T15:08:40;6.65;;;2.30;;
38318;SDS011;24121;53.536;10.224;2022-07-29T15:11:06;3.20;;;2.05;;
38318;SDS011;24121;53.536;10.224;2022-07-29T15:13:32;7.05;;;2.13;;
38318;SDS011;24121;53.536;10.224;2022-07-29T15:15:58;6.25;;;1.88;;
38318;SDS011;24121;53.536;10.224;2022-07-29T15:18:23;5.90;;;1.85;;
38318;SDS011;24121;53.536;10.224;2022-07-29T15:20:48;6.30;;;1.80;;
38318;SDS011;24121;53.536;10.224;2022-07-29T15:23:14;6.60;;;1.75;;
38318;SDS011;24121;53.536;10.224;2022-07-29T15:25:39;10.38;;;2.10;;
38318;SDS011;24121;53.536;10.224;2022-07-29T15:28:05;4.60;;;2.10;;
38318;SDS011;24121;53.536;10.224;2022-07-29T15:30:33;4.57;;;1.98;;
38318;SDS011;24121;53.536;10.224;2022-07-29T15:33:01;7.38;;;1.90;;
38318;SDS011;24121;53.536;10.224;2022-07-29T15:35:27;7.88;;;2.20;;
38318;SDS011;24121;53.536;10.224;2022-07-29T15:37:53;5.85;;;1.92;;
38318;SDS011;24121;53.536;10.224;2022-07-29T15:40:18;6.20;;;2.08;;
38318;SDS011;24121;53.536;10.224;2022-07-29T15:42:43;5.63;;;2.22;;
38318;SDS011;24121;53.536;10.224;2022-07-29T15:45:09;8.98;;;2.30;;
38318;SDS011;24121;53.536;10.224;2022-07-29T15:47:34;8.57;;;2.10;;
38318;SDS011;24121;53.536;10.224;2022-07-29T15:50:00;4.60;;;1.75;;
38318;SDS011;24121;53.536;10.224;2022-07-29T15:52:26;8.07;;;2.20;;
38318;SDS011;24121;53.536;10.224;2022-07-29T15:54:51;8.00;;;2.25;;
38318;SDS011;24121;53.536;10.224;2022-07-29T15:57:17;5.25;;;2.13;;
38318;SDS011;24121;53.536;10.224;2022-07-29T15:59:42;4.95;;;2.00;;
38318;SDS011;24121;53.536;10.224;2022-07-29T16:02:08;4.68;;;2.00;;
38318;SDS011;24121;53.536;10.224;2022-07-29T16:04:33;5.25;;;1.80;;
38318;SDS011;24121;53.536;10.224;2022-07-29T16:06:58;8.00;;;1.92;;
38318;SDS011;24121;53.536;10.224;2022-07-29T16:09:24;11.35;;;2.20;;
38318;SDS011;24121;53.536;10.224;2022-07-29T16:11:50;6.60;;;1.92;;
38318;SDS011;24121;53.536;10.224;2022-07-29T16:14:18;4.13;;;1.92;;
38318;SDS011;24121;53.536;10.224;2022-07-29T16:16:43;5.38;;;2.05;;
38318;SDS011;24121;53.536;10.224;2022-07-29T16:19:09;3.85;;;1.83;;
38318;SDS011;24121;53.536;10.224;2022-07-29T16:21:34;4.55;;;1.98;;
38318;SDS011;24121;53.536;10.224;2022-07-29T16:24:01;6.45;;;2.30;;
38318;SDS011;24121;53.536;10.224;2022-07-29T16:26:27;5.78;;;1.83;;
38318;SDS011;24121;53.536;10.224;2022-07-29T16:28:52;4.72;;;1.92;;
38318;SDS011;24121;53.536;10.224;2022-07-29T16:31:18;7.43;;;1.98;;
38318;SDS011;24121;53.536;10.224;2022-07-29T16:33:46;7.05;;;2.05;;
38318;SDS011;24121;53.536;10.224;2022-07-29T16:36:12;4.20;;;2.10;;
38318;SDS011;24121;53.536;10.224;2022-07-29T16:38:37;4.03;;;2.00;;
38318;SDS011;24121;53.536;10.224;2022-07-29T16:41:03;7.70;;;2.35;;
38318;SDS011;24121;53.536;10.224;2022-07-29T16:43:28;5.68;;;2.00;;
38318;SDS011;24121;53.536;10.224;2022-07-29T16:45:53;7.50;;;2.22;;
38318;SDS011;24121;53.536;10.224;2022-07-29T16:48:19;5.03;;;1.80;;
38318;SDS011;24121;53.536;10.224;2022-07-29T16:50:44;9.57;;;2.58;;
38318;SDS011;24121;53.536;10.224;2022-07-29T16:53:10;4.93;;;2.10;;
38318;SDS011;24121;53.536;10.224;2022-07-29T16:55:35;5.15;;;2.17;;
38318;SDS011;24121;53.536;10.224;2022-07-29T16:58:00;5.45;;;2.25;;
38318;SDS011;24121;53.536;10.224;2022-07-29T17:00:25;10.15;;;2.30;;
38318;SDS011;24121;53.536;10.224;2022-07-29T17:02:51;3.38;;;2.05;;
38318;SDS011;24121;53.536;10.224;2022-07-29T17:05:16;8.70;;;2.28;;
38318;SDS011;24121;53.536;10.224;2022-07-29T17:07:42;3.90;;;2.20;;
38318;SDS011;24121;53.536;10.224;2022-07-29T17:10:07;6.07;;;2.00;;
38318;SDS011;24121;53.536;10.224;2022-07-29T17:12:34;5.65;;;1.95;;
38318;SDS011;24121;53.536;10.224;2022-07-29T17:15:00;5.88;;;2.20;;
38318;SDS011;24121;53.536;10.224;2022-07-29T17:17:26;7.13;;;2.55;;
38318;SDS011;24121;53.536;10.224;2022-07-29T17:19:51;10.05;;;2.58;;
38318;SDS011;24121;53.536;10.224;2022-07-29T17:22:16;6.10;;;2.08;;
38318;SDS011;24121;53.536;10.224;2022-07-29T17:24:42;5.93;;;2.30;;
38318;SDS011;24121;53.536;10.224;2022-07-29T17:27:08;4.78;;;1.92;;
38318;SDS011;24121;53.536;10.224;2022-07-29T17:29:33;5.28;;;1.70;;
38318;SDS011;24121;53.536;10.224;2022-07-29T17:31:59;8.77;;;2.42;;
38318;SDS011;24121;53.536;10.224;2022-07-29T17:34:24;7.32;;;2.33;;
38318;SDS011;24121;53.536;10.224;2022-07-29T17:36:50;4.50;;;2.08;;
38318;SDS011;24121;53.536;10.224;2022-07-29T17:39:15;4.35;;;1.80;;
38318;SDS011;24121;53.536;10.224;2022-07-29T17:41:40;7.05;;;2.55;;
38318;SDS011;24121;53.536;10.224;2022-07-29T17:44:06;6.20;;;2.20;;
38318;SDS011;24121;53.536;10.224;2022-07-29T17:46:33;8.45;;;2.05;;
38318;SDS011;24121;53.536;10.224;2022-07-29T17:48:58;7.82;;;2.15;;
38318;SDS011;24121;53.536;10.224;2022-07-29T17:51:24;4.80;;;2.00;;
38318;SDS011;24121;53.536;10.224;2022-07-29T17:53:50;8.98;;;2.28;;
38318;SDS011;24121;53.536;10.224;2022-07-29T17:56:15;5.93;;;2.08;;
38318;SDS011;24121;53.536;10.224;2022-07-29T17:58:41;4.45;;;2.08;;
38318;SDS011;24121;53.536;10.224;2022-07-29T18:01:06;5.93;;;2.10;;
38318;SDS011;24121;53.536;10.224;2022-07-29T18:03:32;4.47;;;1.80;;
38318;SDS011;24121;53.536;10.224;2022-07-29T18:05:57;6.10;;;2.20;;
38318;SDS011;24121;53.536;10.224;2022-07-29T18:08:23;6.32;;;2.28;;
38318;SDS011;24121;53.536;10.224;2022-07-29T18:10:48;5.07;;;1.83;;
38318;SDS011;24121;53.536;10.224;2022-07-29T18:13:14;4.47;;;1.92;;
38318;SDS011;24121;53.536;10.224;2022-07-29T18:15:42;5.30;;;2.10;;
38318;SDS011;24121;53.536;10.224;2022-07-29T18:18:09;6.20;;;2.10;;
38318;SDS011;24121;53.536;10.224;2022-07-29T18:20:34;5.25;;;1.95;;
38318;SDS011;24121;53.536;10.224;2022-07-29T18:23:00;8.43;;;2.20;;
38318;SDS011;24121;53.536;10.224;2022-07-29T18:25:25;8.30;;;2.33;;
38318;SDS011;24121;53.536;10.224;2022-07-29T18:27:51;8.75;;;2.40;;
38318;SDS011;24121;53.536;10.224;2022-07-29T18:30:16;4.32;;;1.80;;
38318;SDS011;24121;53.536;10.224;2022-07-29T18:32:43;4.82;;;2.20;;
38318;SDS011;24121;53.536;10.224;2022-07-29T18:35:08;4.30;;;1.80;;
38318;SDS011;24121;53.536;10.224;2022-07-29T18:37:33;7.40;;;2.17;;
38318;SDS011;24121;53.536;10.224;2022-07-29T18:39:59;6.60;;;1.92;;
38318;SDS011;24121;53.536;10.224;2022-07-29T18:42:25;5.38;;;2.10;;
38318;SDS011;24121;53.536;10.224;2022-07-29T18:44:50;4.90;;;2.10;;
38318;SDS011;24121;53.536;10.224;2022-07-29T18:47:16;5.43;;;2.90;;
38318;SDS011;24121;53.536;10.224;2022-07-29T18:49:41;5.95;;;2.03;;
38318;SDS011;24121;53.536;10.224;2022-07-29T18:52:06;3.88;;;1.90;;
38318;SDS011;24121;53.536;10.224;2022-07-29T18:54:32;6.35;;;2.28;;
38318;SDS011;24121;53.536;10.224;2022-07-29T18:56:57;5.25;;;1.88;;
38318;SDS011;24121;53.536;10.224;2022-07-29T18:59:22;4.35;;;2.00;;
38318;SDS011;24121;53.536;10.224;2022-07-29T19:01:48;8.18;;;2.58;;
38318;SDS011;24121;53.536;10.224;2022-07-29T19:04:17;7.22;;;1.92;;
38318;SDS011;24121;53.536;10.224;2022-07-29T19:06:42;6.72;;;2.22;;
38318;SDS011;24121;53.536;10.224;2022-07-29T19:09:08;8.73;;;2.47;;
38318;SDS011;24121;53.536;10.224;2022-07-29T19:11:36;6.30;;;2.10;;
38318;SDS011;24121;53.536;10.224;2022-07-29T19:14:03;5.18;;;1.80;;
38318;SDS011;24121;53.536;10.224;2022-07-29T19:16:28;6.03;;;2.40;;
38318;SDS011;24121;53.536;10.224;2022-07-29T19:18:54;6.97;;;2.25;;
38318;SDS011;24121;53.536;10.224;2022-07-29T19:21:19;7.82;;;2.30;;
38318;SDS011;24121;53.536;10.224;2022-07-29T19:23:46;8.30;;;2.38;;
38318;SDS011;24121;53.536;10.224;2022-07-29T19:26:11;4.57;;;1.95;;
38318;SDS011;24121;53.536;10.224;2022-07-29T19:28:37;6.65;;;2.60;;
38318;SDS011;24121;53.536;10.224;2022-07-29T19:31:02;6.97;;;2.17;;
38318;SDS011;24121;53.536;10.224;2022-07-29T19:33:27;12.38;;;2.50;;
38318;SDS011;24121;53.536;10.224;2022-07-29T19:35:53;8.43;;;2.42;;
38318;SDS011;24121;53.536;10.224;2022-07-29T19:38:18;5.70;;;2.35;;
38318;SDS011;24121;53.536;10.224;2022-07-29T19:40:44;8.50;;;2.40;;
38318;SDS011;24121;53.536;10.224;2022-07-29T19:43:09;7.72;;;2.25;;
38318;SDS011;24121;53.536;10.224;2022-07-29T19:45:35;10.13;;;2.45;;
38318;SDS011;24121;53.536;10.224;2022-07-29T19:48:00;3.70;;;2.28;;
38318;SDS011;24121;53.536;10.224;2022-07-29T19:50:27;6.13;;;2.75;;
38318;SDS011;24121;53.536;10.224;2022-07-29T19:52:53;8.52;;;2.80;;
38318;SDS011;24121;53.536;10.224;2022-07-29T19:55:18;6.72;;;2.63;;
38318;SDS011;24121;53.536;10.224;2022-07-29T19:57:44;7.80;;;2.55;;
38318;SDS011;24121;53.536;10.224;2022-07-29T20:00:10;6.82;;;2.50;;
38318;SDS011;24121;53.536;10.224;2022-07-29T20:02:36;8.13;;;2.58;;
38318;SDS011;24121;53.536;10.224;2022-07-29T20:05:02;4.38;;;2.33;;
38318;SDS011;24121;53.536;10.224;2022-07-29T20:07:28;8.38;;;2.90;;
38318;SDS011;24121;53.536;10.224;2022-07-29T20:09:53;7.78;;;2.80;;
38318;SDS011;24121;53.536;10.224;2022-07-29T20:12:19;6.05;;;2.67;;
38318;SDS011;24121;53.536;10.224;2022-07-29T20:14:45;5.07;;;2.58;;
38318;SDS011;24121;53.536;10.224;2022-07-29T20:17:10;6.60;;;2.65;;
38318;SDS011;24121;53.536;10.224;2022-07-29T20:19:36;6.40;;;2.67;;
38318;SDS011;24121;53.536;10.224;2022-07-29T20:22:01;7.70;;;2.75;;
38318;SDS011;24121;53.536;10.224;2022-07-29T20:24:27;7.22;;;2.55;;
38318;SDS011;24121;53.536;10.224;2022-07-29T20:26:52;7.15;;;2.70;;
38318;SDS011;24121;53.536;10.224;2022-07-29T20:29:17;10.65;;;2.70;;
38318;SDS011;24121;53.536;10.224;2022-07-29T20:31:43;5.82;;;2.33;;
38318;SDS011;24121;53.536;10.224;2022-07-29T20:34:09;6.75;;;2.60;;
38318;SDS011;24121;53.536;10.224;2022-07-29T20:36:35;7.18;;;2.58;;
38318;SDS011;24121;53.536;10.224;2022-07-29T20:39:00;10.57;;;2.67;;
38318;SDS011;24121;53.536;10.224;2022-07-29T20:41:26;5.00;;;2.10;;
38318;SDS011;24121;53.536;10.224;2022-07-29T20:43:52;10.55;;;3.00;;
38318;SDS011;24121;53.536;10.224;2022-07-29T20:46:18;11.77;;;3.17;;
38318;SDS011;24121;53.536;10.224;2022-07-29T20:48:44;6.97;;;2.45;;
38318;SDS011;24121;53.536;10.224;2022-07-29T20:51:10;6.50;;;2.53;;
38318;SDS011;24121;53.536;10.224;2022-07-29T20:53:36;7.60;;;2.70;;
38318;SDS011;24121;53.536;10.224;2022-07-29T20:56:03;7.35;;;2.40;;
38318;SDS011;24121;53.536;10.224;2022-07-29T20:58:29;5.35;;;2.92;;
38318;SDS011;24121;53.536;10.224;2022-07-29T21:00:56;8.43;;;2.78;;
38318;SDS011;24121;53.536;10.224;2022-07-29T21:03:21;7.13;;;3.08;;
38318;SDS011;24121;53.536;10.224;2022-07-29T21:05:47;5.47;;;2.30;;
38318;SDS011;24121;53.536;10.224;2022-07-29T21:08:12;5.25;;;2.75;;
38318;SDS011;24121;53.536;10.224;2022-07-29T21:10:38;5.80;;;2.40;;
38318;SDS011;24121;53.536;10.224;2022-07-29T21:13:03;6.68;;;2.58;;
38318;SDS011;24121;53.536;10.224;2022-07-29T21:15:28;7.57;;;2.65;;
38318;SDS011;24121;53.536;10.224;2022-07-29T21:17:54;5.50;;;2.30;;
38318;SDS011;24121;53.536;10.224;2022-07-29T21:20:33;5.95;;;2.40;;
38318;SDS011;24121;53.536;10.224;2022-07-29T21:22:58;9.57;;;2.92;;
38318;SDS011;24121;53.536;10.224;2022-07-29T21:25:23;5.40;;;2.85;;
38318;SDS011;24121;53.536;10.224;2022-07-29T21:27:49;11.75;;;3.47;;
38318;SDS011;24121;53.536;10.224;2022-07-29T21:30:34;9.85;;;3.63;;
38318;SDS011;24121;53.536;10.224;2022-07-29T21:33:00;8.25;;;2.85;;
38318;SDS011;24121;53.536;10.224;2022-07-29T21:35:25;11.52;;;2.85;;
38318;SDS011;24121;53.536;10.224;2022-07-29T21:37:51;6.40;;;2.70;;
38318;SDS011;24121;53.536;10.224;2022-07-29T21:40:16;5.05;;;2.50;;
38318;SDS011;24121;53.536;10.224;2022-07-29T21:42:41;6.82;;;2.38;;
38318;SDS011;24121;53.536;10.224;2022-07-29T21:45:07;12.38;;;2.78;;
38318;SDS011;24121;53.536;10.224;2022-07-29T21:47:33;4.45;;;2.22;;
38318;SDS011;24121;53.536;10.224;2022-07-29T21:49:58;5.93;;;2.90;;
38318;SDS011;24121;53.536;10.224;2022-07-29T21:52:24;5.40;;;2.33;;
38318;SDS011;24121;53.536;10.224;2022-07-29T21:54:49;6.20;;;2.45;;
38318;SDS011;24121;53.536;10.224;2022-07-29T21:57:14;6.35;;;2.42;;
38318;SDS011;24121;53.536;10.224;2022-07-29T21:59:40;4.90;;;2.55;;
38318;SDS011;24121;53.536;10.224;2022-07-29T22:02:05;9.27;;;2.67;;
38318;SDS011;24121;53.536;10.224;2022-07-29T22:04:30;6.72;;;2.65;;
38318;SDS011;24121;53.536;10.224;2022-07-29T22:06:56;6.43;;;2.95;;
38318;SDS011;24121;53.536;10.224;2022-07-29T22:09:22;9.25;;;2.67;;
38318;SDS011;24121;53.536;10.224;2022-07-29T22:11:48;4.97;;;2.45;;
38318;SDS011;24121;53.536;10.224;2022-07-29T22:14:14;9.15;;;2.75;;
38318;SDS011;24121;53.536;10.224;2022-07-29T22:16:41;6.22;;;2.47;;
38318;SDS011;24121;53.536;10.224;2022-07-29T22:19:07;6.82;;;2.50;;
38318;SDS011;24121;53.536;10.224;2022-07-29T22:21:32;4.78;;;2.38;;
38318;SDS011;24121;53.536;10.224;2022-07-29T22:23:58;3.92;;;2.22;;
38318;SDS011;24121;53.536;10.224;2022-07-29T22:26:24;5.68;;;2.50;;
38318;SDS011;24121;53.536;10.224;2022-07-29T22:28:49;4.13;;;2.38;;
38318;SDS011;24121;53.536;10.224;2022-07-29T22:31:15;5.10;;;2.60;;
38318;SDS011;24121;53.536;10.224;2022-07-29T22:33:40;5.97;;;2.58;;
38318;SDS011;24121;53.536;10.224;2022-07-29T22:36:06;3.55;;;2.60;;
38318;SDS011;24121;53.536;10.224;2022-07-29T22:38:31;8.23;;;2.65;;
38318;SDS011;24121;53.536;10.224;2022-07-29T22:40:56;8.23;;;2.67;;
38318;SDS011;24121;53.536;10.224;2022-07-29T22:43:22;7.10;;;2.60;;
38318;SDS011;24121;53.536;10.224;2022-07-29T22:45:47;6.30;;;2.30;;
38318;SDS011;24121;53.536;10.224;2022-07-29T22:48:12;5.13;;;2.47;;
38318;SDS011;24121;53.536;10.224;2022-07-29T22:50:38;8.07;;;2.90;;
38318;SDS011;24121;53.536;10.224;2022-07-29T22:53:03;7.40;;;2.60;;
38318;SDS011;24121;53.536;10.224;2022-07-29T22:55:29;7.10;;;2.80;;
38318;SDS011;24121;53.536;10.224;2022-07-29T22:57:54;4.72;;;2.55;;
38318;SDS011;24121;53.536;10.224;2022-07-29T23:00:19;6.82;;;2.92;;
38318;SDS011;24121;53.536;10.224;2022-07-29T23:02:45;4.53;;;2.55;;
38318;SDS011;24121;53.536;10.224;2022-07-29T23:05:10;5.80;;;2.53;;
38318;SDS011;24121;53.536;10.224;2022-07-29T23:07:35;6.05;;;2.75;;
38318;SDS011;24121;53.536;10.224;2022-07-29T23:10:01;5.78;;;2.40;;